createdAt,value
2023-03-20T00:00:59.273Z,66.70
2023-03-20T00:02:31.592Z,66.30
2023-03-20T00:04:05.034Z,66.30
2023-03-20T00:05:38.632Z,66.40
2023-03-20T00:07:12.754Z,66.40
2023-03-20T00:08:47.365Z,66.40
2023-03-20T00:10:21.999Z,66.40
2023-03-20T00:11:56.866Z,66.70
2023-03-20T00:13:31.275Z,66.70
2023-03-20T00:15:06.964Z,66.90
2023-03-20T00:16:43.569Z,66.50
2023-03-20T00:18:19.888Z,66.60
2023-03-20T00:19:51.970Z,66.50
2023-03-20T00:21:25.625Z,66.40
2023-03-20T00:22:58.951Z,66.30
2023-03-20T00:24:32.203Z,66.10
2023-03-20T00:26:05.546Z,65.90
2023-03-20T00:27:37.699Z,65.80
2023-03-20T00:29:21.380Z,65.70
2023-03-20T00:30:53.513Z,65.50
2023-03-20T00:32:28.285Z,65.30
2023-03-20T00:34:07.362Z,65.20
2023-03-20T00:35:40.570Z,64.90
2023-03-20T00:37:12.753Z,64.70
2023-03-20T00:38:45.821Z,64.70
2023-03-20T00:40:19.239Z,64.70
2023-03-20T00:41:55.908Z,64.60
2023-03-20T00:43:29.191Z,64.40
2023-03-20T00:45:05.068Z,64.40
2023-03-20T00:46:40.671Z,64.30
2023-03-20T00:48:16.930Z,64.20
2023-03-20T00:49:54.454Z,64.20
2023-03-20T00:51:27.749Z,64.10
2023-03-20T00:53:01.314Z,64.00
2023-03-20T00:54:34.666Z,63.90
2023-03-20T00:56:17.922Z,64.00
2023-03-20T00:57:54.326Z,64.00
2023-03-20T00:59:32.661Z,63.90
2023-03-20T01:01:07.593Z,63.80
2023-03-20T01:02:41.023Z,63.80
2023-03-20T01:04:17.442Z,63.70
2023-03-20T01:05:52.478Z,63.70
2023-03-20T01:07:25.669Z,63.60
2023-03-20T01:08:58.839Z,63.50
2023-03-20T01:10:34.358Z,63.60
2023-03-20T01:12:08.759Z,63.60
2023-03-20T01:13:42.310Z,63.50
2023-03-20T01:15:23.695Z,63.50
2023-03-20T01:16:57.290Z,63.30
2023-03-20T01:18:30.409Z,63.10
2023-03-20T01:20:02.589Z,62.90
2023-03-20T01:21:36.590Z,62.80
2023-03-20T01:23:10.637Z,62.70
2023-03-20T01:24:43.009Z,62.50
2023-03-20T01:26:34.849Z,62.40
2023-03-20T01:28:18.237Z,62.70
2023-03-20T01:29:50.392Z,62.50
2023-03-20T01:31:24.323Z,62.50
2023-03-20T01:33:00.795Z,62.40
2023-03-20T01:34:34.005Z,62.30
2023-03-20T01:36:10.500Z,62.10
2023-03-20T01:37:45.064Z,62.00
2023-03-20T01:39:19.101Z,62.00
2023-03-20T01:40:58.329Z,62.00
2023-03-20T01:42:32.338Z,61.90
2023-03-20T01:44:22.104Z,61.90
2023-03-20T01:46:04.024Z,61.80
2023-03-20T01:47:41.128Z,61.80
2023-03-20T01:50:17.582Z,61.80
2023-03-20T01:51:54.601Z,61.70
2023-03-20T01:53:31.212Z,61.70
2023-03-20T01:55:07.844Z,61.70
2023-03-20T01:56:47.773Z,61.70
2023-03-20T01:58:27.045Z,61.70
2023-03-20T02:00:07.053Z,61.50
2023-03-20T02:01:49.707Z,61.50
2023-03-20T02:03:26.056Z,61.60
2023-03-20T02:05:21.711Z,61.80
2023-03-20T02:06:57.269Z,62.20
2023-03-20T02:08:47.184Z,61.70
2023-03-20T02:10:21.880Z,61.40
2023-03-20T02:12:00.856Z,61.40
2023-03-20T02:13:36.440Z,61.40
2023-03-20T02:15:11.822Z,61.40
2023-03-20T02:16:59.201Z,61.40
2023-03-20T02:18:41.367Z,61.50
2023-03-20T02:20:32.899Z,61.40
2023-03-20T02:22:52.091Z,61.40
2023-03-20T02:25:29.378Z,61.40
2023-03-20T02:27:14.529Z,61.40
2023-03-20T02:29:28.696Z,61.30
2023-03-20T02:31:30.810Z,61.30
2023-03-20T02:33:54.669Z,61.30
2023-03-20T02:36:27.475Z,61.10
2023-03-20T02:38:30.796Z,61.30
2023-03-20T02:40:22.571Z,61.30
2023-03-20T02:42:05.689Z,61.30
2023-03-20T02:43:48.703Z,61.20
2023-03-20T02:45:28.907Z,61.30
2023-03-20T02:47:24.835Z,61.20
2023-03-20T02:49:11.552Z,61.20
2023-03-20T02:50:52.685Z,61.20
2023-03-20T02:52:37.166Z,61.20
2023-03-20T02:54:24.455Z,61.20
2023-03-20T02:56:13.254Z,61.20
2023-03-20T02:58:00.984Z,61.20
2023-03-20T02:59:43.070Z,61.20
2023-03-20T03:01:25.074Z,61.20
2023-03-20T03:03:11.529Z,61.20
2023-03-20T03:04:56.621Z,61.20
2023-03-20T03:06:33.019Z,61.20
2023-03-20T03:08:10.943Z,61.30
2023-03-20T03:09:53.735Z,61.30
2023-03-20T03:11:27.257Z,61.20
2023-03-20T03:13:05.665Z,61.40
2023-03-20T03:14:46.606Z,61.70
2023-03-20T03:16:28.187Z,61.60
2023-03-20T03:18:04.998Z,62.30
2023-03-20T03:19:42.415Z,61.50
2023-03-20T03:21:19.759Z,61.20
2023-03-20T03:22:53.479Z,61.20
2023-03-20T03:24:40.743Z,61.20
2023-03-20T03:26:23.687Z,61.20
2023-03-20T03:28:09.204Z,61.20
2023-03-20T03:29:44.030Z,61.20
2023-03-20T03:31:19.477Z,61.20
2023-03-20T03:33:15.313Z,61.20
2023-03-20T03:34:49.181Z,61.20
2023-03-20T03:36:39.595Z,61.00
2023-03-20T03:38:30.850Z,60.30
2023-03-20T03:40:20.962Z,60.10
2023-03-20T03:42:07.638Z,60.20
2023-03-20T03:43:51.956Z,60.10
2023-03-20T03:45:34.521Z,59.90
2023-03-20T03:47:14.032Z,59.80
2023-03-20T03:48:55.349Z,59.80
2023-03-20T03:50:34.990Z,60.00
2023-03-20T03:52:14.405Z,60.10
2023-03-20T03:53:55.281Z,60.00
2023-03-20T03:55:36.381Z,59.90
2023-03-20T03:57:23.699Z,59.80
2023-03-20T03:59:01.838Z,59.60
2023-03-20T04:00:36.552Z,59.50
2023-03-20T04:02:11.283Z,59.40
2023-03-20T04:03:52.143Z,59.40
2023-03-20T04:05:31.344Z,59.50
2023-03-20T04:07:05.560Z,59.20
2023-03-20T04:08:41.013Z,59.10
2023-03-20T04:10:15.339Z,59.00
2023-03-20T04:11:53.283Z,59.10
2023-03-20T04:13:26.869Z,59.10
2023-03-20T04:15:02.465Z,59.00
2023-03-20T04:16:36.770Z,59.10
2023-03-20T04:18:16.452Z,59.00
2023-03-20T04:19:50.704Z,59.00
2023-03-20T04:21:25.480Z,59.00
2023-03-20T04:22:59.133Z,59.00
2023-03-20T04:24:32.810Z,59.20
2023-03-20T04:26:07.532Z,59.20
2023-03-20T04:27:40.728Z,59.20
2023-03-20T04:29:21.416Z,59.30
2023-03-20T04:31:02.750Z,59.40
2023-03-20T04:32:54.455Z,59.40
2023-03-20T04:34:39.301Z,59.50
2023-03-20T04:36:32.549Z,60.40
2023-03-20T04:38:04.837Z,59.80
2023-03-20T04:39:42.294Z,59.90
2023-03-20T04:41:15.462Z,60.00
2023-03-20T04:42:49.906Z,60.10
2023-03-20T04:44:25.526Z,60.00
2023-03-20T04:45:59.142Z,60.30
2023-03-20T04:47:32.618Z,60.20
2023-03-20T04:49:06.206Z,59.80
2023-03-20T04:50:39.784Z,59.70
2023-03-20T04:52:13.730Z,59.70
2023-03-20T04:53:49.197Z,59.70
2023-03-20T04:55:22.628Z,59.70
2023-03-20T04:56:56.250Z,59.60
2023-03-20T04:58:29.936Z,59.60
2023-03-20T05:00:05.276Z,59.70
2023-03-20T05:01:38.628Z,59.60
2023-03-20T05:03:12.048Z,59.50
2023-03-20T05:04:45.852Z,59.50
2023-03-20T05:06:19.164Z,59.50
2023-03-20T05:07:53.113Z,59.50
2023-03-20T05:09:35.197Z,59.40
2023-03-20T05:11:10.893Z,59.40
2023-03-20T05:13:02.697Z,59.40
2023-03-20T05:14:59.669Z,59.40
2023-03-20T05:16:57.279Z,59.50
2023-03-20T05:18:29.626Z,59.40
2023-03-20T05:20:31.336Z,59.40
2023-03-20T05:22:11.365Z,59.40
2023-03-20T05:24:03.413Z,59.40
2023-03-20T05:25:36.966Z,59.40
2023-03-20T05:27:43.005Z,59.40
2023-03-20T05:29:40.597Z,59.50
2023-03-20T05:31:13.776Z,59.60
2023-03-20T05:33:08.463Z,59.60
2023-03-20T05:35:12.658Z,59.50
2023-03-20T05:37:08.980Z,59.50
2023-03-20T05:39:00.913Z,59.70
2023-03-20T05:40:50.564Z,59.80
2023-03-20T05:42:23.886Z,60.00
2023-03-20T05:44:16.504Z,60.00
2023-03-20T05:46:04.494Z,60.00
2023-03-20T05:48:01.065Z,59.80
2023-03-20T05:49:53.759Z,59.70
2023-03-20T05:51:38.227Z,59.80
2023-03-20T05:53:28.246Z,59.90
2023-03-20T05:55:16.950Z,60.10
2023-03-20T05:57:10.050Z,60.20
2023-03-20T05:59:02.876Z,60.40
2023-03-20T06:00:53.429Z,60.50
2023-03-20T06:02:47.344Z,60.50
2023-03-20T06:04:58.297Z,60.50
2023-03-20T06:06:37.819Z,60.50
2023-03-20T06:08:11.232Z,60.40
2023-03-20T06:09:44.426Z,60.40
2023-03-20T06:11:19.912Z,60.50
2023-03-20T06:12:55.009Z,60.40
2023-03-20T06:14:31.719Z,60.40
2023-03-20T06:16:10.457Z,60.40
2023-03-20T06:17:44.707Z,60.40
2023-03-20T06:19:21.949Z,60.40
2023-03-20T06:20:58.296Z,60.40
2023-03-20T06:22:34.244Z,60.50
2023-03-20T06:24:08.485Z,60.40
2023-03-20T06:25:41.587Z,60.50
2023-03-20T06:27:14.869Z,60.40
2023-03-20T06:28:48.742Z,60.00
2023-03-20T06:30:22.049Z,59.90
2023-03-20T06:31:57.016Z,60.00
2023-03-20T06:33:34.661Z,60.10
2023-03-20T06:35:09.964Z,60.10
2023-03-20T06:36:45.680Z,60.30
2023-03-20T06:38:24.997Z,60.20
2023-03-20T06:39:58.600Z,60.00
2023-03-20T06:41:34.916Z,60.00
2023-03-20T06:43:12.645Z,60.00
2023-03-20T06:44:52.833Z,60.00
2023-03-20T06:46:55.130Z,60.00
2023-03-20T06:48:28.318Z,59.90
2023-03-20T06:50:02.261Z,60.00
2023-03-20T06:51:37.411Z,60.00
2023-03-20T06:53:13.406Z,60.00
2023-03-20T06:54:52.055Z,59.80
2023-03-20T06:56:25.597Z,59.70
2023-03-20T06:57:58.654Z,59.50
2023-03-20T06:59:32.428Z,59.40
2023-03-20T07:01:11.328Z,59.20
2023-03-20T07:02:44.786Z,59.20
2023-03-20T07:04:20.906Z,59.20
2023-03-20T07:05:58.195Z,59.10
2023-03-20T07:07:31.526Z,59.20
2023-03-20T07:09:07.691Z,59.20
2023-03-20T07:10:41.092Z,59.40
2023-03-20T07:12:15.952Z,59.50
2023-03-20T07:13:50.293Z,59.50
2023-03-20T07:16:01.283Z,59.60
2023-03-20T07:17:39.308Z,59.60
2023-03-20T07:19:13.439Z,59.50
2023-03-20T07:20:49.363Z,60.00
2023-03-20T07:22:26.941Z,59.30
2023-03-20T07:24:12.246Z,59.10
2023-03-20T07:25:46.255Z,59.20
2023-03-20T07:27:23.396Z,59.10
2023-03-20T07:28:59.964Z,59.10
2023-03-20T07:30:33.740Z,59.10
2023-03-20T07:32:06.969Z,59.10
2023-03-20T07:33:43.602Z,59.10
2023-03-20T07:35:16.937Z,59.10
2023-03-20T07:36:50.945Z,59.00
2023-03-20T07:38:27.108Z,59.00
2023-03-20T07:40:14.293Z,58.90
2023-03-20T07:41:59.303Z,58.90
2023-03-20T07:43:44.908Z,58.90
2023-03-20T07:45:27.209Z,58.90
2023-03-20T07:47:02.651Z,58.90
2023-03-20T07:48:35.898Z,58.80
2023-03-20T07:50:10.151Z,58.80
2023-03-20T07:51:43.262Z,58.90
2023-03-20T07:53:16.652Z,58.80
2023-03-20T07:54:49.743Z,58.70
2023-03-20T07:56:24.377Z,58.50
2023-03-20T07:57:57.847Z,58.40
2023-03-20T07:59:31.128Z,58.30
2023-03-20T08:01:04.827Z,58.40
2023-03-20T08:02:38.218Z,58.40
2023-03-20T08:04:11.781Z,58.40
2023-03-20T08:05:47.301Z,58.30
2023-03-20T08:07:21.256Z,58.30
2023-03-20T08:08:54.540Z,58.10
2023-03-20T08:10:27.817Z,58.10
2023-03-20T08:12:02.278Z,58.10
2023-03-20T08:13:35.600Z,58.00
2023-03-20T08:15:10.582Z,58.10
2023-03-20T08:16:43.626Z,58.20
2023-03-20T08:18:16.895Z,58.10
2023-03-20T08:19:50.358Z,58.30
2023-03-20T08:21:23.548Z,58.20
2023-03-20T08:22:56.850Z,58.20
2023-03-20T08:24:30.729Z,57.90
2023-03-20T08:26:03.906Z,57.80
2023-03-20T08:27:39.479Z,57.60
2023-03-20T08:29:12.762Z,57.20
2023-03-20T08:30:46.057Z,56.80
2023-03-20T08:32:19.397Z,57.20
2023-03-20T08:33:53.301Z,56.50
2023-03-20T08:35:33.312Z,56.10
2023-03-20T08:37:07.837Z,56.20
2023-03-20T08:38:41.001Z,56.10
2023-03-20T08:40:14.612Z,56.10
2023-03-20T08:41:48.499Z,56.00
2023-03-20T08:43:23.175Z,56.00
2023-03-20T08:44:56.523Z,55.90
2023-03-20T08:46:29.907Z,55.70
2023-03-20T08:48:03.247Z,55.60
2023-03-20T08:49:36.864Z,55.60
2023-03-20T08:51:10.089Z,55.60
2023-03-20T08:52:44.119Z,55.60
2023-03-20T08:54:18.624Z,55.70
2023-03-20T08:55:54.042Z,55.80
2023-03-20T08:57:27.208Z,55.70
2023-03-20T08:59:01.702Z,55.60
2023-03-20T09:00:34.873Z,55.50
2023-03-20T09:02:08.708Z,55.60
2023-03-20T09:03:42.329Z,55.70
2023-03-20T09:05:16.003Z,55.70
2023-03-20T09:06:51.574Z,55.60
2023-03-20T09:08:24.866Z,55.60
2023-03-20T09:09:58.007Z,55.50
2023-03-20T09:11:31.289Z,55.30
2023-03-20T09:13:15.685Z,55.80
2023-03-20T09:14:58.924Z,55.30
2023-03-20T09:16:32.113Z,55.20
2023-03-20T09:18:05.811Z,55.30
2023-03-20T09:19:39.966Z,55.40
2023-03-20T09:21:13.135Z,55.50
2023-03-20T09:22:46.544Z,55.50
2023-03-20T09:24:19.735Z,55.60
2023-03-20T09:25:52.874Z,55.50
2023-03-20T09:27:26.154Z,55.20
2023-03-20T09:28:59.484Z,55.10
2023-03-20T09:30:34.647Z,55.00
2023-03-20T09:32:08.218Z,54.70
2023-03-20T09:33:41.370Z,54.70
2023-03-20T09:35:14.781Z,54.60
2023-03-20T09:36:47.948Z,54.40
2023-03-20T09:38:21.513Z,55.00
2023-03-20T09:39:58.305Z,54.40
2023-03-20T09:41:48.965Z,54.20
2023-03-20T09:43:49.915Z,54.20
2023-03-20T09:45:41.665Z,54.00
2023-03-20T09:47:21.658Z,54.00
2023-03-20T09:49:10.555Z,53.70
2023-03-20T09:50:52.594Z,53.50
2023-03-20T09:52:34.098Z,53.60
2023-03-20T09:54:18.686Z,53.50
2023-03-20T09:55:54.753Z,53.40
2023-03-20T09:57:33.612Z,53.60
2023-03-20T09:59:08.778Z,53.60
2023-03-20T10:00:47.585Z,53.50
2023-03-20T10:02:35.410Z,53.40
2023-03-20T10:04:11.649Z,53.60
2023-03-20T10:05:52.456Z,53.80
2023-03-20T10:07:27.046Z,53.80
2023-03-20T10:09:00.229Z,53.90
2023-03-20T10:10:48.318Z,53.80
2023-03-20T10:12:49.882Z,53.80
2023-03-20T10:14:34.901Z,53.80
2023-03-20T10:16:21.229Z,53.80
2023-03-20T10:18:03.932Z,53.80
2023-03-20T10:19:45.705Z,53.80
2023-03-20T10:21:31.719Z,53.80
2023-03-20T10:23:13.484Z,53.80
2023-03-20T10:24:55.237Z,54.00
2023-03-20T10:26:30.932Z,54.10
2023-03-20T10:28:13.366Z,54.20
2023-03-20T10:29:58.517Z,54.10
2023-03-20T10:31:44.840Z,54.10
2023-03-20T10:33:46.848Z,54.20
2023-03-20T10:35:29.254Z,54.10
2023-03-20T10:37:24.531Z,54.30
2023-03-20T10:39:07.346Z,54.40
2023-03-20T10:40:44.890Z,54.50
2023-03-20T10:42:24.647Z,54.40
2023-03-20T10:44:00.517Z,54.40
2023-03-20T10:45:44.039Z,54.10
2023-03-20T10:47:25.834Z,54.10
2023-03-20T10:49:06.445Z,54.70
2023-03-20T10:50:48.957Z,53.90
2023-03-20T10:52:27.673Z,53.90
2023-03-20T10:54:06.033Z,54.00
2023-03-20T10:55:45.073Z,54.20
2023-03-20T10:57:24.268Z,54.30
2023-03-20T10:59:06.800Z,54.30
2023-03-20T11:00:40.566Z,54.30
2023-03-20T11:02:16.155Z,54.20
2023-03-20T11:03:51.008Z,54.10
2023-03-20T11:05:31.548Z,53.80
2023-03-20T11:07:17.238Z,53.90
2023-03-20T11:08:53.657Z,53.90
2023-03-20T11:10:28.354Z,53.90
2023-03-20T11:12:04.597Z,53.90
2023-03-20T11:13:42.886Z,53.90
2023-03-20T11:15:23.826Z,53.90
2023-03-20T11:17:03.678Z,53.90
2023-03-20T11:18:36.845Z,53.90
2023-03-20T11:20:15.349Z,53.80
2023-03-20T11:21:52.994Z,53.50
2023-03-20T11:23:30.403Z,53.50
2023-03-20T11:25:03.905Z,53.50
2023-03-20T11:26:41.072Z,53.50
2023-03-20T11:28:26.334Z,53.60
2023-03-20T11:30:03.493Z,53.40
2023-03-20T11:31:40.702Z,53.40
2023-03-20T11:33:16.555Z,53.30
2023-03-20T11:34:50.881Z,53.20
2023-03-20T11:36:30.203Z,52.90
2023-03-20T11:38:16.455Z,52.50
2023-03-20T11:39:59.321Z,52.40
2023-03-20T11:41:33.406Z,52.30
2023-03-20T11:43:13.992Z,52.30
2023-03-20T11:44:58.729Z,52.40
2023-03-20T11:46:31.962Z,52.10
2023-03-20T11:48:07.974Z,52.50
2023-03-20T11:49:50.594Z,52.40
2023-03-20T11:51:26.393Z,52.10
2023-03-20T11:53:00.213Z,52.30
2023-03-20T11:54:33.676Z,52.20
2023-03-20T11:56:11.835Z,52.00
2023-03-20T11:57:47.401Z,51.70
2023-03-20T11:59:21.802Z,51.80
2023-03-20T12:00:57.415Z,51.80
2023-03-20T12:02:31.203Z,51.50
2023-03-20T12:04:09.166Z,51.20
2023-03-20T12:05:42.350Z,51.10
2023-03-20T12:07:24.140Z,51.10
2023-03-20T12:09:03.717Z,50.70
2023-03-20T12:10:43.513Z,50.80
2023-03-20T12:12:37.831Z,50.80
2023-03-20T12:14:24.978Z,50.50
2023-03-20T12:16:04.588Z,50.60
2023-03-20T12:17:48.780Z,51.10
2023-03-20T12:19:30.751Z,51.00
2023-03-20T12:21:12.450Z,51.30
2023-03-20T12:22:57.807Z,51.20
2023-03-20T12:24:39.771Z,50.90
2023-03-20T12:26:17.650Z,50.80
2023-03-20T12:28:04.801Z,50.80
2023-03-20T12:29:47.184Z,50.50
2023-03-20T12:31:31.227Z,50.70
2023-03-20T12:33:13.164Z,50.70
2023-03-20T12:34:56.411Z,50.60
2023-03-20T12:36:41.863Z,50.40
2023-03-20T12:38:31.379Z,50.10
2023-03-20T12:40:06.391Z,50.00
2023-03-20T12:41:50.513Z,50.00
2023-03-20T12:43:28.490Z,49.80
2023-03-20T12:45:11.926Z,49.80
2023-03-20T12:46:57.410Z,50.50
2023-03-20T12:49:04.578Z,49.90
2023-03-20T12:50:41.569Z,49.90
2023-03-20T12:52:29.349Z,50.20
2023-03-20T12:54:23.517Z,50.30
2023-03-20T12:56:15.477Z,50.40
2023-03-20T12:58:02.626Z,50.50
2023-03-20T12:59:59.406Z,50.40
2023-03-20T13:01:37.826Z,50.30
2023-03-20T13:03:30.246Z,50.30
2023-03-20T13:05:23.985Z,50.20
2023-03-20T13:07:01.951Z,50.60
2023-03-20T13:09:41.694Z,50.90
2023-03-20T13:11:32.221Z,50.60
2023-03-20T13:13:20.991Z,50.80
2023-03-20T13:15:06.884Z,50.80
2023-03-20T13:16:52.274Z,50.80
2023-03-20T13:18:52.003Z,50.90
2023-03-20T13:20:30.040Z,51.00
2023-03-20T13:22:09.701Z,51.10
2023-03-20T13:23:55.803Z,51.30
2023-03-20T13:25:53.674Z,51.50
2023-03-20T13:27:40.261Z,51.40
2023-03-20T13:29:23.841Z,51.60
2023-03-20T13:31:09.138Z,51.70
2023-03-20T13:32:58.658Z,51.80
2023-03-20T13:34:54.869Z,51.80
2023-03-20T13:36:51.092Z,51.90
2023-03-20T13:38:29.215Z,52.00
2023-03-20T13:40:12.568Z,52.20
2023-03-20T13:41:48.801Z,52.50
2023-03-20T13:43:31.292Z,52.70
2023-03-20T13:45:14.557Z,52.80
2023-03-20T13:46:52.629Z,53.10
2023-03-20T13:48:34.771Z,53.20
2023-03-20T13:50:28.821Z,53.30
2023-03-20T13:52:11.368Z,53.30
2023-03-20T13:54:02.546Z,53.10
2023-03-20T13:55:49.366Z,53.10
2023-03-20T13:57:47.826Z,53.10
2023-03-20T13:59:44.530Z,53.20
2023-03-20T14:01:25.917Z,53.40
2023-03-20T14:03:17.760Z,53.50
2023-03-20T14:05:06.057Z,53.40
2023-03-20T14:06:50.960Z,53.60
2023-03-20T14:08:33.679Z,53.70
2023-03-20T14:10:36.062Z,53.90
2023-03-20T14:12:13.307Z,54.20
2023-03-20T14:13:51.792Z,54.10
2023-03-20T14:15:28.974Z,54.10
2023-03-20T14:17:16.086Z,54.10
2023-03-20T14:18:51.203Z,54.30
2023-03-20T14:20:32.507Z,54.10
2023-03-20T14:22:07.456Z,54.10
2023-03-20T14:23:46.925Z,54.10
2023-03-20T14:25:25.797Z,54.20
2023-03-20T14:27:03.987Z,54.10
2023-03-20T14:28:59.947Z,54.30
2023-03-20T14:30:44.577Z,54.50
2023-03-20T14:32:36.379Z,54.50
2023-03-20T14:34:18.050Z,54.60
2023-03-20T14:36:11.440Z,54.50
2023-03-20T14:38:21.961Z,54.50
2023-03-20T14:40:04.059Z,54.60
2023-03-20T14:41:57.366Z,54.60
2023-03-20T14:43:58.548Z,54.80
2023-03-20T14:45:44.051Z,54.80
2023-03-20T14:47:33.293Z,54.60
2023-03-20T14:49:35.045Z,54.50
2023-03-20T14:51:27.643Z,54.10
2023-03-20T14:53:17.826Z,54.30
2023-03-20T14:54:53.854Z,54.30
2023-03-20T14:56:32.369Z,54.30
2023-03-20T14:58:38.954Z,54.60
2023-03-20T15:00:21.110Z,54.50
2023-03-20T15:02:07.887Z,54.10
2023-03-20T15:03:43.057Z,54.10
2023-03-20T15:05:29.483Z,54.10
2023-03-20T15:07:05.412Z,53.90
2023-03-20T15:08:46.141Z,53.80
2023-03-20T15:10:19.928Z,54.00
2023-03-20T15:11:59.759Z,54.10
2023-03-20T15:13:36.086Z,54.30
2023-03-20T15:15:25.710Z,54.30
2023-03-20T15:17:02.230Z,54.20
2023-03-20T15:18:41.726Z,54.40
2023-03-20T15:20:19.071Z,54.40
2023-03-20T15:21:52.140Z,54.30
2023-03-20T15:23:26.951Z,54.30
2023-03-20T15:24:59.950Z,54.20
2023-03-20T15:26:36.503Z,53.90
2023-03-20T15:28:18.052Z,53.90
2023-03-20T15:29:55.904Z,53.90
2023-03-20T15:31:32.619Z,53.90
2023-03-20T15:33:09.095Z,53.80
2023-03-20T15:34:44.655Z,53.70
2023-03-20T15:36:21.457Z,53.60
2023-03-20T15:37:57.957Z,53.60
2023-03-20T15:39:43.862Z,53.80
2023-03-20T15:41:28.998Z,53.80
2023-03-20T15:43:13.613Z,53.50
2023-03-20T15:44:50.060Z,53.80
2023-03-20T15:46:27.717Z,53.60
2023-03-20T15:48:02.496Z,53.40
2023-03-20T15:49:37.928Z,53.30
2023-03-20T15:51:12.277Z,53.30
2023-03-20T15:52:52.738Z,53.30
2023-03-20T15:54:26.493Z,53.30
2023-03-20T15:56:17.310Z,53.30
2023-03-20T15:57:53.980Z,53.30
2023-03-20T15:59:31.235Z,53.40
2023-03-20T16:01:06.494Z,53.30
2023-03-20T16:02:39.778Z,53.40
2023-03-20T16:04:16.832Z,53.50
2023-03-20T16:05:53.772Z,53.70
2023-03-20T16:07:31.679Z,53.60
2023-03-20T16:09:09.247Z,53.70
2023-03-20T16:10:44.713Z,53.80
2023-03-20T16:12:33.518Z,54.10
2023-03-20T16:14:28.152Z,54.10
2023-03-20T16:16:24.224Z,54.10
2023-03-20T16:18:16.288Z,54.20
2023-03-20T16:19:56.998Z,54.10
2023-03-20T16:21:50.408Z,54.00
2023-03-20T16:23:51.795Z,54.00
2023-03-20T16:25:32.362Z,54.10
2023-03-20T16:27:13.871Z,54.10
2023-03-20T16:29:03.594Z,54.10
2023-03-20T16:31:02.306Z,54.10
2023-03-20T16:32:54.138Z,54.20
2023-03-20T16:34:43.587Z,54.20
2023-03-20T16:36:37.003Z,54.40
2023-03-20T16:38:32.816Z,54.60
2023-03-20T16:40:30.746Z,54.80
2023-03-20T16:42:36.740Z,54.80
2023-03-20T16:44:26.095Z,54.80
2023-03-20T16:46:16.116Z,54.90
2023-03-20T16:47:50.923Z,55.20
2023-03-20T16:49:51.545Z,55.20
2023-03-20T16:51:28.351Z,55.30
2023-03-20T16:53:01.926Z,55.20
2023-03-20T16:54:38.180Z,55.20
2023-03-20T16:56:14.308Z,55.30
2023-03-20T16:57:52.609Z,55.40
2023-03-20T16:59:27.702Z,55.40
2023-03-20T17:01:04.590Z,55.60
2023-03-20T17:02:41.264Z,55.70
2023-03-20T17:04:21.395Z,55.60
2023-03-20T17:06:00.756Z,55.80
2023-03-20T17:07:34.381Z,56.20
2023-03-20T17:09:21.381Z,56.10
2023-03-20T17:11:00.385Z,56.10
2023-03-20T17:12:33.673Z,56.10
2023-03-20T17:14:06.849Z,56.10
2023-03-20T17:15:40.091Z,56.30
2023-03-20T17:17:14.491Z,56.40
2023-03-20T17:18:58.797Z,56.90
2023-03-20T17:20:32.009Z,57.20
2023-03-20T17:22:15.639Z,57.20
2023-03-20T17:23:48.767Z,57.00
2023-03-20T17:25:22.377Z,57.00
2023-03-20T17:26:57.625Z,57.00
2023-03-20T17:28:36.990Z,57.00
2023-03-20T17:30:18.750Z,57.20
2023-03-20T17:31:51.938Z,57.00
2023-03-20T17:33:25.084Z,57.00
2023-03-20T17:34:58.169Z,56.80
2023-03-20T17:36:33.828Z,56.90
2023-03-20T17:38:08.366Z,57.10
2023-03-20T17:39:41.991Z,57.30
2023-03-20T17:41:17.069Z,57.60
2023-03-20T17:42:51.573Z,57.80
2023-03-20T17:44:24.848Z,57.90
2023-03-20T17:45:59.355Z,58.70
2023-03-20T17:47:33.230Z,58.00
2023-03-20T17:49:11.598Z,58.10
2023-03-20T17:50:46.262Z,57.90
2023-03-20T17:52:22.977Z,58.00
2023-03-20T17:53:57.809Z,58.20
2023-03-20T17:55:30.888Z,58.30
2023-03-20T17:57:04.150Z,58.70
2023-03-20T17:58:39.355Z,58.40
2023-03-20T18:00:20.375Z,58.50
2023-03-20T18:01:53.629Z,58.40
2023-03-20T18:03:26.951Z,58.30
2023-03-20T18:05:00.170Z,58.30
2023-03-20T18:06:35.048Z,58.40
2023-03-20T18:08:14.314Z,58.50
2023-03-20T18:09:48.922Z,58.80
2023-03-20T18:11:22.592Z,58.50
2023-03-20T18:12:55.705Z,58.80
2023-03-20T18:14:30.196Z,58.90
2023-03-20T18:16:03.592Z,59.10
2023-03-20T18:17:36.716Z,59.20
2023-03-20T18:19:23.296Z,59.40
2023-03-20T18:20:57.345Z,59.60
2023-03-20T18:22:30.471Z,59.30
2023-03-20T18:24:03.670Z,58.70
2023-03-20T18:25:37.456Z,58.30
2023-03-20T18:27:12.020Z,58.10
2023-03-20T18:28:45.235Z,57.90
2023-03-20T18:30:24.151Z,57.90
2023-03-20T18:31:57.551Z,57.80
2023-03-20T18:33:30.955Z,57.80
2023-03-20T18:35:04.400Z,57.90
2023-03-20T18:36:37.575Z,57.80
2023-03-20T18:38:13.911Z,57.70
2023-03-20T18:39:47.433Z,57.90
2023-03-20T18:41:21.419Z,58.00
2023-03-20T18:42:56.238Z,58.30
2023-03-20T18:44:29.328Z,58.30
2023-03-20T18:46:03.906Z,58.30
2023-03-20T18:47:37.237Z,58.30
2023-03-20T18:49:16.843Z,58.20
2023-03-20T18:50:52.390Z,58.30
2023-03-20T18:52:25.768Z,58.50
2023-03-20T18:53:58.890Z,58.70
2023-03-20T18:55:33.386Z,58.50
2023-03-20T18:57:06.523Z,58.20
2023-03-20T18:58:40.048Z,58.30
2023-03-20T19:00:25.599Z,58.30
2023-03-20T19:02:00.940Z,58.30
2023-03-20T19:03:39.181Z,58.00
2023-03-20T19:05:12.742Z,58.00
2023-03-20T19:06:46.365Z,58.00
2023-03-20T19:08:20.192Z,58.30
2023-03-20T19:09:54.245Z,58.30
2023-03-20T19:11:28.182Z,58.10
2023-03-20T19:13:02.188Z,58.30
2023-03-20T19:14:35.527Z,58.20
2023-03-20T19:16:23.267Z,57.90
2023-03-20T19:17:58.264Z,57.80
2023-03-20T19:19:31.357Z,57.70
2023-03-20T19:21:04.891Z,57.60
2023-03-20T19:22:38.016Z,57.80
2023-03-20T19:24:12.425Z,57.80
2023-03-20T19:25:48.782Z,57.90
2023-03-20T19:27:22.170Z,57.90
2023-03-20T19:28:57.865Z,57.70
2023-03-20T19:30:34.826Z,57.50
2023-03-20T19:32:08.095Z,57.60
2023-03-20T19:33:42.663Z,57.70
2023-03-20T19:35:46.789Z,57.60
2023-03-20T19:37:13.054Z,57.30
2023-03-20T19:38:46.416Z,57.40
2023-03-20T19:40:31.941Z,57.30
2023-03-20T19:42:30.338Z,57.30
2023-03-20T19:44:01.456Z,57.40
2023-03-20T19:45:38.258Z,57.40
2023-03-20T19:47:12.289Z,57.40
2023-03-20T19:48:51.058Z,57.50
2023-03-20T19:50:30.636Z,57.70
2023-03-20T19:52:07.039Z,58.00
2023-03-20T19:53:40.709Z,58.10
2023-03-20T19:55:14.422Z,58.20
2023-03-20T19:56:47.783Z,58.20
2023-03-20T19:58:21.492Z,58.10
2023-03-20T19:59:54.680Z,58.10
2023-03-20T20:01:27.942Z,58.10
2023-03-20T20:03:03.511Z,58.10
2023-03-20T20:04:38.376Z,58.30
2023-03-20T20:06:12.388Z,58.40
2023-03-20T20:08:17.046Z,58.40
2023-03-20T20:09:38.837Z,58.30
2023-03-20T20:11:14.633Z,58.30
2023-03-20T20:12:48.451Z,58.50
2023-03-20T20:14:23.811Z,58.80
2023-03-20T20:15:58.166Z,59.50
2023-03-20T20:17:31.577Z,58.90
2023-03-20T20:19:05.816Z,59.20
2023-03-20T20:21:27.258Z,59.20
2023-03-20T20:22:39.297Z,59.20
2023-03-20T20:24:13.110Z,59.20
2023-03-20T20:25:50.469Z,59.30
2023-03-20T20:27:31.503Z,59.40
2023-03-20T20:29:04.675Z,59.60
2023-03-20T20:30:39.556Z,59.70
2023-03-20T20:32:12.747Z,59.80
2023-03-20T20:34:02.252Z,59.60
2023-03-20T20:36:15.308Z,59.70
2023-03-20T20:38:28.280Z,59.80
2023-03-20T20:39:39.533Z,59.90
2023-03-20T20:41:12.604Z,59.90
2023-03-20T20:42:49.201Z,60.20
2023-03-20T20:44:22.335Z,59.80
2023-03-20T20:45:55.689Z,59.70
2023-03-20T20:47:28.802Z,59.50
2023-03-20T20:49:18.094Z,59.40
2023-03-20T20:50:53.412Z,59.50
2023-03-20T20:52:26.547Z,59.70
2023-03-20T20:53:59.864Z,59.70
2023-03-20T20:55:36.285Z,59.60
2023-03-20T20:57:11.927Z,59.60
2023-03-20T20:58:45.142Z,59.60
2023-03-20T21:00:21.279Z,59.40
2023-03-20T21:01:54.661Z,59.50
2023-03-20T21:03:29.033Z,59.70
2023-03-20T21:05:03.363Z,59.80
2023-03-20T21:07:06.163Z,59.90
2023-03-20T21:08:31.035Z,59.70
2023-03-20T21:10:07.152Z,59.60
2023-03-20T21:11:40.474Z,60.30
2023-03-20T21:13:17.031Z,59.60
2023-03-20T21:14:52.265Z,59.50
2023-03-20T21:16:34.445Z,59.70
2023-03-20T21:18:10.665Z,60.00
2023-03-20T21:19:44.786Z,60.40
2023-03-20T21:21:19.045Z,60.50
2023-03-20T21:22:53.494Z,60.70
2023-03-20T21:24:33.074Z,61.00
2023-03-20T21:26:10.487Z,61.00
2023-03-20T21:27:46.282Z,60.90